createdAt,value
2022-10-19T00:01:11.730Z,1.40
2022-10-19T00:03:40.354Z,1.50
2022-10-19T00:06:25.479Z,2.00
2022-10-19T00:08:54.499Z,1.63
2022-10-19T00:11:23.657Z,1.60
2022-10-19T00:13:53.626Z,1.43
2022-10-19T00:16:22.326Z,1.70
2022-10-19T00:18:50.802Z,1.70
2022-10-19T00:21:20.634Z,2.00
2022-10-19T00:23:49.473Z,1.50
2022-10-19T00:26:17.476Z,1.50
2022-10-19T00:28:46.290Z,1.83
2022-10-19T00:31:18.116Z,1.30
2022-10-19T00:33:47.616Z,2.17
2022-10-19T00:36:17.999Z,1.77
2022-10-19T00:38:46.578Z,1.90
2022-10-19T00:41:14.674Z,1.67
2022-10-19T00:43:54.566Z,1.67
2022-10-19T00:46:24.606Z,2.17
2022-10-19T00:48:56.284Z,1.87
2022-10-19T00:51:27.326Z,1.40
2022-10-19T00:53:55.674Z,1.80
2022-10-19T00:56:24.176Z,1.47
2022-10-19T00:58:52.211Z,2.33
2022-10-19T01:01:24.726Z,1.83
2022-10-19T01:03:52.807Z,1.10
2022-10-19T01:06:21.146Z,1.57
2022-10-19T01:08:49.196Z,2.10
2022-10-19T01:11:32.450Z,2.37
2022-10-19T01:14:11.193Z,1.70
2022-10-19T01:16:52.613Z,2.13
2022-10-19T01:19:39.253Z,1.80
2022-10-19T01:22:20.834Z,1.90
2022-10-19T01:25:02.904Z,1.80
2022-10-19T01:27:50.465Z,2.00
2022-10-19T01:30:30.198Z,2.20
2022-10-19T01:33:16.047Z,1.70
2022-10-19T01:35:50.494Z,2.87
2022-10-19T01:38:30.605Z,2.07
2022-10-19T01:41:08.818Z,1.63
2022-10-19T01:43:43.915Z,1.30
2022-10-19T01:46:18.364Z,1.23
2022-10-19T01:48:51.991Z,1.50
2022-10-19T01:51:24.528Z,2.47
2022-10-19T01:53:55.006Z,1.70
2022-10-19T01:56:26.909Z,2.10
2022-10-19T01:58:57.950Z,2.03
2022-10-19T02:01:31.100Z,1.97
2022-10-19T02:03:59.698Z,2.60
2022-10-19T02:06:27.994Z,2.30
2022-10-19T02:08:56.119Z,1.93
2022-10-19T02:11:25.031Z,2.07
2022-10-19T02:13:57.617Z,1.60
2022-10-19T02:16:30.914Z,2.27
2022-10-19T02:19:00.339Z,1.30
2022-10-19T02:21:28.737Z,2.23
2022-10-19T02:23:56.733Z,2.57
2022-10-19T02:26:24.766Z,1.90
2022-10-19T02:28:54.512Z,1.90
2022-10-19T02:31:22.675Z,1.53
2022-10-19T02:33:52.320Z,1.63
2022-10-19T02:36:20.759Z,2.20
2022-10-19T02:38:48.986Z,1.90
2022-10-19T02:41:19.786Z,1.30
2022-10-19T02:43:51.340Z,1.40
2022-10-19T02:46:24.726Z,2.13
2022-10-19T02:48:55.231Z,2.43
2022-10-19T02:51:34.304Z,1.73
2022-10-19T02:54:05.149Z,2.20
2022-10-19T02:56:34.078Z,1.20
2022-10-19T02:59:02.323Z,1.20
2022-10-19T03:01:30.328Z,1.50
2022-10-19T03:03:59.690Z,1.80
2022-10-19T03:06:27.758Z,1.70
2022-10-19T03:08:55.812Z,1.90
2022-10-19T03:11:23.835Z,1.63
2022-10-19T03:13:51.803Z,1.40
2022-10-19T03:16:20.312Z,1.53
2022-10-19T03:18:49.609Z,1.87
2022-10-19T03:21:19.231Z,2.23
2022-10-19T03:23:47.297Z,1.83
2022-10-19T03:26:17.374Z,1.40
2022-10-19T03:28:45.463Z,1.17
2022-10-19T03:31:13.677Z,1.73
2022-10-19T03:33:41.683Z,1.40
2022-10-19T03:36:22.737Z,2.27
2022-10-19T03:38:53.869Z,1.47
2022-10-19T03:41:22.762Z,2.70
2022-10-19T03:43:51.052Z,2.00
2022-10-19T03:46:19.434Z,1.83
2022-10-19T03:48:47.736Z,1.90
2022-10-19T03:51:18.258Z,1.50
2022-10-19T03:53:48.614Z,1.40
2022-10-19T03:56:18.918Z,1.40
2022-10-19T03:58:48.603Z,1.00
2022-10-19T04:01:18.454Z,1.47
2022-10-19T04:03:46.620Z,1.63
2022-10-19T04:06:21.214Z,1.40
2022-10-19T04:08:51.865Z,1.47
2022-10-19T04:11:23.111Z,1.10
2022-10-19T04:13:51.386Z,1.43
2022-10-19T04:16:20.594Z,1.63
2022-10-19T04:18:48.629Z,1.13
2022-10-19T04:21:23.826Z,1.00
2022-10-19T04:23:54.426Z,1.30
2022-10-19T04:26:22.489Z,0.90
2022-10-19T04:28:50.553Z,1.37
2022-10-19T04:31:18.585Z,0.93
2022-10-19T04:36:19.971Z,1.40
2022-10-19T04:38:48.170Z,1.50
2022-10-19T04:41:19.981Z,2.40
2022-10-19T04:43:48.925Z,2.23
2022-10-19T04:46:19.421Z,1.40
2022-10-19T04:48:48.667Z,1.77
2022-10-19T04:51:17.560Z,1.63
2022-10-19T04:53:45.874Z,1.60
2022-10-19T04:56:15.882Z,1.83
2022-10-19T04:58:45.797Z,1.30
2022-10-19T05:01:15.499Z,1.37
2022-10-19T05:03:43.723Z,1.90
2022-10-19T05:06:12.600Z,2.33
2022-10-19T05:08:41.090Z,3.77
2022-10-19T05:11:11.239Z,1.30
2022-10-19T05:13:39.691Z,2.00
2022-10-19T05:16:12.517Z,1.90
2022-10-19T05:18:40.890Z,1.47
2022-10-19T05:21:11.395Z,2.23
2022-10-19T05:23:39.554Z,1.77
2022-10-19T05:26:09.683Z,2.83
2022-10-19T05:28:38.785Z,1.97
2022-10-19T05:31:09.926Z,1.97
2022-10-19T05:33:38.667Z,2.73
2022-10-19T05:36:14.811Z,2.13
2022-10-19T05:38:43.415Z,1.57
2022-10-19T05:41:11.498Z,1.73
2022-10-19T05:43:40.085Z,1.70
2022-10-19T05:46:12.475Z,3.30
2022-10-19T05:48:41.375Z,2.33
2022-10-19T05:51:12.315Z,2.33
2022-10-19T05:53:40.954Z,1.60
2022-10-19T05:56:10.986Z,2.07
2022-10-19T05:58:39.058Z,1.93
2022-10-19T06:01:08.201Z,2.43
2022-10-19T06:03:37.922Z,1.80
2022-10-19T06:06:07.244Z,1.90
2022-10-19T06:08:35.947Z,1.60
2022-10-19T06:11:06.662Z,2.90
2022-10-19T06:13:34.882Z,2.33
2022-10-19T06:16:02.981Z,2.20
2022-10-19T06:18:30.977Z,4.20
2022-10-19T06:21:05.181Z,2.77
2022-10-19T06:23:33.915Z,2.97
2022-10-19T06:26:04.337Z,2.83
2022-10-19T06:28:32.681Z,2.27
2022-10-19T06:31:01.790Z,3.23
2022-10-19T06:33:31.481Z,2.83
2022-10-19T06:36:07.995Z,2.67
2022-10-19T06:38:36.347Z,2.27
2022-10-19T06:41:05.002Z,2.30
2022-10-19T06:43:33.086Z,2.80
2022-10-19T06:46:04.559Z,3.83
2022-10-19T06:48:32.899Z,3.40
2022-10-19T06:51:06.152Z,3.90
2022-10-19T06:53:36.719Z,4.00
2022-10-19T06:56:07.147Z,4.03
2022-10-19T06:58:36.881Z,3.67
2022-10-19T07:01:07.475Z,3.77
2022-10-19T07:03:35.975Z,3.07
2022-10-19T07:06:07.082Z,3.60
2022-10-19T07:08:38.937Z,3.87
2022-10-19T07:11:09.178Z,5.00
2022-10-19T07:13:37.374Z,4.13
2022-10-19T07:16:08.264Z,3.87
2022-10-19T07:18:38.233Z,3.97
2022-10-19T07:21:08.142Z,4.07
2022-10-19T07:23:39.498Z,3.90
2022-10-19T07:26:11.914Z,4.00
2022-10-19T07:28:40.772Z,3.20
2022-10-19T07:31:11.052Z,3.87
2022-10-19T07:33:39.297Z,2.97
2022-10-19T07:36:09.126Z,3.30
2022-10-19T07:38:38.843Z,3.80
2022-10-19T07:41:09.003Z,3.63
2022-10-19T07:43:37.305Z,3.30
2022-10-19T07:46:07.208Z,4.73
2022-10-19T07:48:35.453Z,4.80
2022-10-19T07:51:05.533Z,4.50
2022-10-19T07:57:12.036Z,3.93
2022-10-19T08:00:08.145Z,3.40
2022-10-19T08:02:57.887Z,3.47
2022-10-19T08:05:28.218Z,4.77
2022-10-19T08:07:57.415Z,4.57
2022-10-19T08:10:25.782Z,3.80
2022-10-19T08:15:53.370Z,4.50
2022-10-19T08:18:23.033Z,3.60
2022-10-19T08:20:51.184Z,4.23
2022-10-19T08:23:19.299Z,4.33
2022-10-19T08:37:46.375Z,4.97
2022-10-19T08:40:20.473Z,4.23
2022-10-19T08:42:58.235Z,3.77
2022-10-19T08:48:26.967Z,3.93
2022-10-19T08:50:57.384Z,4.20
2022-10-19T08:53:34.426Z,4.30
2022-10-19T08:56:26.791Z,3.73
2022-10-19T08:59:10.853Z,4.07
2022-10-19T09:01:44.420Z,3.03
2022-10-19T09:04:20.776Z,2.90
2022-10-19T09:06:58.091Z,4.17
2022-10-19T09:09:30.554Z,3.37
2022-10-19T09:12:06.454Z,3.60
2022-10-19T09:14:37.500Z,3.10
2022-10-19T09:17:11.762Z,3.50
2022-10-19T09:19:39.758Z,3.03
2022-10-19T09:22:14.014Z,2.53
2022-10-19T09:24:49.218Z,2.43
2022-10-19T09:27:21.910Z,2.60
2022-10-19T09:29:54.349Z,2.70
2022-10-19T09:32:26.678Z,2.47
2022-10-19T09:34:57.786Z,2.60
2022-10-19T09:37:27.026Z,2.60
2022-10-19T09:39:56.979Z,2.13
2022-10-19T09:42:29.073Z,2.00
2022-10-19T09:44:59.344Z,1.87
2022-10-19T09:47:37.068Z,2.27
2022-10-19T09:50:20.107Z,1.73
2022-10-19T09:52:49.434Z,1.80
2022-10-19T09:55:34.927Z,1.93
2022-10-19T09:58:06.677Z,1.40
2022-10-19T10:00:42.216Z,1.50
2022-10-19T10:03:24.767Z,1.60
2022-10-19T10:05:53.542Z,1.70
2022-10-19T10:08:23.972Z,1.07
2022-10-19T10:11:04.345Z,1.40
2022-10-19T10:16:24.596Z,1.00
2022-10-19T10:18:57.762Z,1.07
2022-10-19T10:21:27.277Z,1.00
2022-10-19T10:24:05.495Z,1.10
2022-10-19T10:26:40.393Z,1.00
2022-10-19T10:29:20.230Z,0.90
2022-10-19T10:31:51.059Z,1.47
2022-10-19T10:34:45.344Z,1.50
2022-10-19T10:37:21.379Z,1.10
2022-10-19T10:39:53.315Z,1.30
2022-10-19T10:42:29.326Z,1.13
2022-10-19T10:44:57.798Z,1.63
2022-10-19T10:47:27.134Z,1.10
2022-10-19T10:49:57.539Z,1.20
2022-10-19T10:52:29.031Z,1.40
2022-10-19T10:55:02.803Z,1.17
2022-10-19T10:57:36.549Z,1.20
2022-10-19T11:00:11.260Z,1.30
2022-10-19T11:02:47.295Z,1.10
2022-10-19T11:05:21.512Z,1.40
2022-10-19T11:07:53.913Z,1.23
2022-10-19T11:10:27.605Z,1.10
2022-10-19T11:13:05.419Z,1.00
2022-10-19T11:15:37.950Z,1.27
2022-10-19T11:18:16.653Z,1.40
2022-10-19T11:20:54.746Z,1.03
2022-10-19T11:23:35.526Z,1.50
2022-10-19T11:26:18.747Z,1.20
2022-10-19T11:29:01.479Z,1.20
2022-10-19T11:31:42.815Z,1.30
2022-10-19T11:34:26.900Z,1.30
2022-10-19T11:37:00.307Z,1.00
2022-10-19T11:39:45.693Z,1.20
2022-10-19T11:42:19.285Z,1.20
2022-10-19T11:45:03.698Z,1.37
2022-10-19T11:47:51.048Z,1.30
2022-10-19T11:50:32.104Z,1.27
2022-10-19T11:53:10.479Z,1.20
2022-10-19T11:55:45.598Z,1.00
2022-10-19T11:58:34.577Z,1.40
2022-10-19T12:01:17.526Z,1.37
2022-10-19T12:04:01.514Z,1.20
2022-10-19T12:06:37.056Z,1.20
2022-10-19T12:09:17.377Z,1.50
2022-10-19T12:11:55.487Z,1.40
2022-10-19T12:14:26.828Z,1.70
2022-10-19T12:16:58.839Z,1.40
2022-10-19T12:19:30.065Z,1.00
2022-10-19T12:22:02.593Z,1.27
2022-10-19T12:24:33.680Z,1.60
2022-10-19T12:27:02.722Z,1.60
2022-10-19T12:29:34.399Z,2.07
2022-10-19T12:32:05.564Z,1.73
2022-10-19T12:34:42.759Z,1.10
2022-10-19T12:37:15.310Z,1.60
2022-10-19T12:39:51.658Z,1.30
2022-10-19T12:42:26.663Z,1.30
2022-10-19T12:45:23.707Z,1.40
2022-10-19T12:48:20.004Z,1.27
2022-10-19T12:51:08.878Z,1.43
2022-10-19T12:53:39.217Z,1.60
2022-10-19T12:56:12.194Z,1.30
2022-10-19T12:58:48.050Z,1.27
2022-10-19T13:01:20.694Z,1.20
2022-10-19T13:03:53.921Z,1.33
2022-10-19T13:06:33.734Z,1.20
2022-10-19T13:09:04.990Z,1.30
2022-10-19T13:14:08.822Z,1.53
2022-10-19T13:17:02.261Z,1.23
2022-10-19T13:19:31.710Z,1.30
2022-10-19T13:22:26.682Z,1.53
2022-10-19T13:25:21.331Z,1.37
2022-10-19T13:27:50.221Z,1.40
2022-10-19T13:31:00.485Z,1.93
2022-10-19T13:33:51.456Z,1.43
2022-10-19T13:36:22.569Z,1.53
2022-10-19T13:39:08.507Z,1.40
2022-10-19T13:41:53.658Z,1.60
2022-10-19T13:44:25.053Z,1.50
2022-10-19T13:47:25.247Z,1.53
2022-10-19T13:50:25.910Z,1.43
2022-10-19T13:53:20.682Z,1.30
2022-10-19T13:56:08.410Z,1.30
2022-10-19T13:59:14.177Z,1.60
2022-10-19T14:01:57.677Z,0.93
2022-10-19T14:04:40.079Z,1.40
2022-10-19T14:07:15.107Z,1.40
2022-10-19T14:10:08.205Z,1.20
2022-10-19T14:12:39.950Z,1.30
2022-10-19T14:15:23.019Z,1.20
2022-10-19T14:17:51.051Z,1.60
2022-10-19T14:20:33.109Z,1.20
2022-10-19T14:23:19.194Z,1.13
2022-10-19T14:25:54.199Z,1.60
2022-10-19T14:28:23.754Z,1.20
2022-10-19T14:31:00.661Z,1.30
2022-10-19T14:33:30.959Z,1.60
2022-10-19T14:35:59.157Z,1.10
2022-10-19T14:38:33.040Z,1.50
2022-10-19T14:41:02.810Z,1.20
2022-10-19T14:43:32.402Z,1.30
2022-10-19T14:46:21.323Z,1.13
2022-10-19T14:48:51.251Z,1.20
2022-10-19T14:51:30.312Z,1.20
2022-10-19T14:54:02.266Z,1.70
2022-10-19T14:56:35.589Z,1.30
2022-10-19T14:59:08.214Z,1.50
2022-10-19T15:01:37.002Z,1.23
2022-10-19T15:04:05.410Z,1.10
2022-10-19T15:06:38.083Z,0.87
2022-10-19T15:09:15.322Z,1.00
2022-10-19T15:11:56.422Z,1.10
2022-10-19T15:14:29.150Z,1.17
2022-10-19T15:16:59.857Z,1.37
2022-10-19T15:19:31.909Z,1.10
2022-10-19T15:22:18.609Z,1.27
2022-10-19T15:25:00.488Z,1.10
2022-10-19T15:27:35.000Z,1.10
2022-10-19T15:30:06.585Z,1.10
2022-10-19T15:32:37.049Z,1.20
2022-10-19T15:35:13.876Z,1.30
2022-10-19T15:37:45.536Z,1.10
2022-10-19T15:40:19.741Z,1.10
2022-10-19T15:42:49.309Z,1.10
2022-10-19T15:45:35.491Z,0.90
2022-10-19T15:48:28.469Z,1.03
2022-10-19T15:50:57.754Z,1.00
2022-10-19T15:53:27.046Z,0.93
2022-10-19T15:55:55.093Z,1.23
2022-10-19T15:58:25.174Z,1.10
2022-10-19T16:00:53.216Z,0.97
2022-10-19T16:03:21.257Z,1.63
2022-10-19T16:05:49.257Z,1.43
2022-10-19T16:08:17.243Z,1.33
2022-10-19T16:10:45.255Z,1.40
2022-10-19T16:13:13.332Z,1.13
2022-10-19T16:15:42.794Z,1.13
2022-10-19T16:18:12.282Z,1.30
2022-10-19T16:20:41.874Z,1.60
2022-10-19T16:23:12.568Z,1.47
2022-10-19T16:25:40.678Z,1.60
2022-10-19T16:28:08.670Z,1.90
2022-10-19T16:30:36.634Z,1.30
2022-10-19T16:33:06.011Z,1.30
2022-10-19T16:35:33.990Z,1.20
2022-10-19T16:38:02.026Z,1.00
2022-10-19T16:40:30.130Z,1.47
2022-10-19T16:43:00.366Z,1.43
2022-10-19T16:45:28.390Z,1.17
2022-10-19T16:47:56.644Z,1.03
2022-10-19T16:50:26.451Z,1.50
2022-10-19T16:53:05.232Z,1.70
2022-10-19T16:55:33.276Z,1.23
2022-10-19T16:58:01.256Z,2.10
2022-10-19T17:00:29.256Z,1.30
2022-10-19T17:02:57.249Z,1.30
2022-10-19T17:05:26.675Z,1.17
2022-10-19T17:07:54.720Z,1.63
2022-10-19T17:10:22.715Z,1.70
2022-10-19T17:12:50.885Z,1.87
2022-10-19T17:18:08.391Z,1.70
2022-10-19T17:20:37.889Z,1.30
2022-10-19T17:23:05.930Z,1.07
2022-10-19T17:25:33.976Z,1.30
2022-10-19T17:28:01.957Z,1.83
2022-10-19T17:30:29.982Z,1.40
2022-10-19T17:32:58.008Z,1.10
2022-10-19T17:35:26.033Z,1.30
2022-10-19T17:37:55.487Z,1.30
2022-10-19T17:40:23.505Z,1.67
2022-10-19T17:42:51.566Z,1.30
2022-10-19T17:45:19.537Z,1.47
2022-10-19T17:47:47.556Z,1.30
2022-10-19T17:50:15.582Z,1.37
2022-10-19T17:52:43.607Z,1.40
2022-10-19T17:55:13.492Z,1.47
2022-10-19T17:57:41.755Z,1.40
2022-10-19T18:00:10.439Z,1.40
2022-10-19T18:02:41.315Z,1.73
2022-10-19T18:05:10.298Z,1.30
2022-10-19T18:07:38.355Z,1.40
2022-10-19T18:10:07.022Z,1.17
2022-10-19T18:12:36.392Z,1.60
2022-10-19T18:15:04.809Z,1.30
2022-10-19T18:17:32.807Z,1.43
2022-10-19T18:20:00.759Z,1.30
2022-10-19T18:22:28.797Z,1.17
2022-10-19T18:24:56.818Z,1.67
2022-10-19T18:27:24.917Z,1.80
2022-10-19T18:29:54.263Z,1.17
2022-10-19T18:32:22.259Z,1.67
2022-10-19T18:34:50.469Z,1.50
2022-10-19T18:37:18.475Z,1.47
2022-10-19T18:39:46.478Z,1.60
2022-10-19T18:42:14.508Z,1.23
2022-10-19T18:44:42.466Z,1.50
2022-10-19T18:47:11.843Z,1.50
2022-10-19T18:49:39.837Z,1.60
2022-10-19T18:52:07.798Z,1.90
2022-10-19T18:54:35.793Z,1.57
2022-10-19T18:57:03.861Z,1.23
2022-10-19T18:59:31.919Z,1.60
2022-10-19T19:02:00.003Z,1.43
2022-10-19T19:04:29.450Z,1.13
2022-10-19T19:06:57.490Z,1.80
2022-10-19T19:09:25.485Z,1.43
2022-10-19T19:11:54.275Z,1.70
2022-10-19T19:14:22.288Z,1.70
2022-10-19T19:16:50.396Z,1.40
2022-10-19T19:19:20.899Z,1.47
2022-10-19T19:21:50.244Z,2.00
2022-10-19T19:24:20.480Z,1.27
2022-10-19T19:26:51.080Z,1.63
2022-10-19T19:29:19.922Z,1.70
2022-10-19T19:31:48.381Z,1.00
2022-10-19T19:34:16.383Z,1.87
2022-10-19T19:36:47.878Z,1.80
2022-10-19T19:39:19.884Z,1.60
2022-10-19T19:41:48.793Z,1.90
2022-10-19T19:44:17.173Z,1.83
2022-10-19T19:46:45.161Z,1.40
2022-10-19T19:49:13.218Z,2.23
2022-10-19T19:51:41.253Z,1.70
2022-10-19T19:54:09.326Z,1.93
2022-10-19T19:56:39.976Z,1.40
2022-10-19T19:59:07.954Z,1.67
2022-10-19T20:01:37.285Z,1.73
2022-10-19T20:04:05.973Z,1.20
2022-10-19T20:06:35.173Z,1.53
2022-10-19T20:09:03.288Z,1.63
2022-10-19T20:11:31.430Z,2.30
2022-10-19T20:14:00.786Z,2.23
2022-10-19T20:16:31.874Z,1.80
2022-10-19T20:19:02.313Z,2.53
2022-10-19T20:21:31.733Z,1.73
2022-10-19T20:23:59.777Z,2.20
2022-10-19T20:26:28.479Z,1.53
2022-10-19T20:28:57.416Z,1.80
2022-10-19T20:33:59.861Z,2.57
2022-10-19T20:36:27.922Z,2.43
2022-10-19T20:38:57.589Z,2.00
2022-10-19T20:41:27.185Z,2.03
2022-10-19T20:43:56.063Z,1.50
2022-10-19T20:46:27.701Z,2.33
2022-10-19T20:48:57.044Z,1.80
2022-10-19T20:51:30.746Z,2.17
2022-10-19T20:54:01.545Z,2.13
2022-10-19T20:56:31.053Z,1.60
2022-10-19T20:59:00.623Z,1.77
2022-10-19T21:01:31.788Z,1.70
2022-10-19T21:04:01.849Z,2.00
2022-10-19T21:06:31.313Z,2.10
2022-10-19T21:08:59.960Z,1.90
2022-10-19T21:11:29.966Z,1.63
2022-10-19T21:13:59.474Z,1.70
2022-10-19T21:16:33.518Z,1.20
2022-10-19T21:19:02.477Z,1.43
2022-10-19T21:21:32.192Z,1.70
2022-10-19T21:24:04.277Z,1.70
2022-10-19T21:26:34.624Z,1.70
2022-10-19T21:29:03.130Z,1.30
2022-10-19T21:31:32.728Z,1.30
2022-10-19T21:34:04.343Z,1.60
2022-10-19T21:36:32.474Z,1.57
2022-10-19T21:39:00.487Z,1.53
2022-10-19T21:41:28.605Z,1.50
2022-10-19T21:43:56.577Z,1.60
2022-10-19T21:46:25.801Z,1.77
2022-10-19T21:48:55.950Z,1.47
2022-10-19T21:51:31.792Z,1.97
2022-10-19T21:54:00.049Z,1.57
2022-10-19T21:56:28.668Z,1.40
2022-10-19T21:58:56.932Z,1.60
2022-10-19T22:01:27.427Z,2.00
2022-10-19T22:04:04.485Z,1.60
2022-10-19T22:06:34.712Z,1.73
2022-10-19T22:09:03.638Z,1.80
2022-10-19T22:11:32.307Z,3.33
2022-10-19T22:14:02.706Z,2.00
2022-10-19T22:16:31.767Z,1.80
2022-10-19T22:18:59.817Z,1.50
2022-10-19T22:21:31.681Z,2.33
2022-10-19T22:24:01.590Z,2.20
2022-10-19T22:26:31.920Z,1.73
2022-10-19T22:29:01.629Z,1.60
2022-10-19T22:31:31.150Z,2.03
2022-10-19T22:34:00.825Z,1.60
2022-10-19T22:36:30.221Z,2.47
2022-10-19T22:38:58.178Z,3.20
2022-10-19T22:41:26.224Z,2.13
2022-10-19T22:43:54.185Z,2.07
2022-10-19T22:46:22.259Z,1.83
2022-10-19T22:48:50.255Z,2.60
2022-10-19T22:51:18.295Z,2.33
2022-10-19T22:53:47.652Z,1.63
2022-10-19T22:56:15.721Z,1.97
2022-10-19T22:58:43.690Z,2.37
2022-10-19T23:01:13.619Z,1.67
2022-10-19T23:03:42.411Z,1.77
2022-10-19T23:06:12.190Z,1.50
2022-10-19T23:08:40.623Z,1.73
2022-10-19T23:11:10.054Z,1.83
2022-10-19T23:13:38.379Z,2.13
2022-10-19T23:16:06.974Z,2.33
2022-10-19T23:18:35.982Z,2.20
2022-10-19T23:21:06.161Z,2.40
2022-10-19T23:23:35.766Z,1.77
2022-10-19T23:26:05.953Z,2.80
2022-10-19T23:28:37.953Z,2.10
2022-10-19T23:31:07.670Z,2.40
2022-10-19T23:33:36.150Z,2.90
2022-10-19T23:36:06.423Z,2.00
2022-10-19T23:38:34.584Z,2.30
2022-10-19T23:41:02.787Z,2.73
2022-10-19T23:43:31.275Z,1.80
2022-10-19T23:46:00.771Z,2.20
2022-10-19T23:48:29.162Z,2.77
2022-10-19T23:50:58.922Z,2.33
2022-10-19T23:53:27.772Z,2.73
2022-10-19T23:56:00.254Z,2.30
2022-10-19T23:58:28.913Z,1.87
